This is the latest recevied weather packets stored in our database for station/object WX7FGZ-3. If no packets are shown the sender has not sent any weather packets the latest 10 day(s).
| Time | Temp. | Humidity | Pressure | Rain* | Wind** | Luminosity | Snow |
|---|---|---|---|---|---|---|---|
| 1777972520 | 7.78° C | 51% | 1005.4 hPa | 0 mm | - | - | - |
| 1777972309 | 7.78° C | 51% | 1005.5 hPa | 0 mm | - | - | - |
| 1777972220 | 7.78° C | 51% | 1005.5 hPa | 0 mm | - | - | - |
| 1777971919 | 7.78° C | 51% | 1005.6 hPa | 0 mm | - | - | - |
| 1777971620 | 7.78° C | 51% | 1005.5 hPa | 0 mm | - | - | - |
| 1777971319 | 7.78° C | 50% | 1005.7 hPa | 0 mm | - | - | - |
| 1777971069 | 7.78° C | 50% | 1005.7 hPa | 0 mm | - | - | - |
| 1777971019 | 7.78° C | 50% | 1005.7 hPa | 0 mm | - | - | - |
| 1777970718 | 8.33° C | 50% | 1005.8 hPa | 0 mm | - | - | - |
| 1777970418 | 8.33° C | 50% | 1005.7 hPa | 0 mm | - | - | - |
| 1777970118 | 8.33° C | 50% | 1005.8 hPa | 0 mm | - | - | - |
| 1777969817 | 8.33° C | 49% | 1005.9 hPa | 0 mm | - | - | - |
| 1777969217 | 8.33° C | 49% | 1006 hPa | 0 mm | - | - | - |
| 1777968917 | 8.33° C | 49% | 1006.1 hPa | 0 mm | - | - | - |
| 1777968316 | 8.33° C | 47% | 1006.3 hPa | 0 mm | - | - | - |
| 1777968017 | 8.89° C | 46% | 1006.4 hPa | 0 mm | - | - | - |
| 1777967715 | 8.89° C | 46% | 1006.5 hPa | 0 mm | - | - | - |
| 1777967115 | 8.89° C | 45% | 1006.6 hPa | 0 mm | - | - | - |
| 1777967065 | 10° C | 39% | 1007 hPa | 0 mm | - | - | - |
| 1777967044 | 10° C | 38% | 1007 hPa | 0 mm | - | - | - |
| 1777966815 | 8.89° C | 45% | 1006.6 hPa | 0 mm | - | - | - |
| 1777966514 | 8.89° C | 45% | 1006.7 hPa | 0 mm | - | - | - |
| 1777966214 | 8.89° C | 45% | 1006.8 hPa | 0 mm | - | - | - |
| 1777965914 | 8.89° C | 45% | 1007 hPa | 0 mm | - | - | - |
| 1777965313 | 9.44° C | 44% | 1006.8 hPa | 0 mm | - | - | - |
* Rain latest hour (hover to see other rain measurements)
** Current wind speed in m/s (hover to see current wind gust speed)